AirNav   Pilot Hours Calculator
 
 946 users online  

1MO1 St Joseph Hospital Heliport
Kirkwood, Missouri, USA

GOING TO KIRKWOOD?


FAA INFORMATION EFFECTIVE 05 DECEMBER 2019

Location

FAA Identifier: 1MO1
Lat/Long: 38-34-05.1910N 090-26-02.4290W
38-34.086517N 090-26.040483W
38.5681086,-90.4340081
(estimated)
Elevation: 530 ft. / 162 m (estimated)
Variation: 02E (1985)
Time zone: UTC -6 (UTC -5 during Daylight Saving Time)
Zip code: 63122

Heliport Operations

Heliport use: Private use, MEDICAL USE.
Activation date: 05/1991
Control tower: no
ARTCC: KANSAS CITY CENTER
FSS: SAINT LOUIS FLIGHT SERVICE STATION
Attendance: CONTINUOUS
Wind indicator: lighted
Segmented circle: no
Lights: SS-SR

Heliport Communications

WX ASOS at STL (11 nm N): PHONE 314-890-4790
WX ASOS at SUS (12 nm NW): 134.8 (314-890-7255)
WX ASOS at CPS (13 nm E): PHONE 618-332-0001

Nearby radio navigation aids

VOR radial/distance  VOR name  Freq  Var
STLr172/17.7ST LOUIS VORTAC117.4001E
TOYr243/26.2TROY VORTAC116.0004E
FTZr102/26.3FORISTELL VORTAC110.8005E

 
NDB name  Hdg/Dist  Freq  Var  ID
EAVES142/8.422701WFZ ..-. --..
OBLIO173/14.133801WLM .-.. --
CIVIC MEMORIAL223/26.326301WCVM -.-. ...- --

Heliport Services

Runway Information

Helipad H1

Dimensions: 110 x 70 ft. / 34 x 21 m
Surface: concrete
Runway edge lights: FLD
Latitude: 38-34.086517N
Longitude: 090-26.040483W
Elevation: 530.0 ft.
Traffic pattern: leftleft

Heliport Ownership and Management from official FAA records

Ownership: Privately-owned
Owner: ST JOSEPH HOSPITAL
525 COUCH AVE
KIRKWOOD, MO 63122
Phone 314-966-1500
Manager: RICHARD A CUNNINGHAM
525 COUCH AVE
KIRKWOOD, MO 63122
Phone 573-966-1500

Additional Remarks

A52-H1 +40 FT BLDG 100 FT SOUTH.
FOR CD CTC ST LOUIS APCH AT 314-890-1018.

Instrument Procedures

There are no published instrument procedures at 1MO1.

Some nearby airports with instrument procedures:

1H0 - Creve Coeur Airport (10 nm N)
KSTL - St Louis Lambert International Airport (11 nm N)
KSUS - Spirit of St Louis Airport (12 nm NW)
KCPS - St Louis Downtown Airport (13 nm E)
KSET - St Charles County Smartt Airport (22 nm N)
 
Loc | Ops | Rwys | IFR | FBO | Links
Com | Nav | Svcs | Stats | Notes

Kansas City Aviation Department
 
Area around 1MO1 (St Joseph Hospital Heliport)
 
Road maps at: MapQuest Bing Google
 
Aerial photo
No photo
 
Sectional chart

 
Airport distance calculator
Flying to St Joseph Hospital Heliport? Find the distance to fly.

From to 1MO1

Sunrise and sunset
Times for 12-Dec-2019
 Local
(UTC-6)
 Zulu
(UTC)
Morning civil twilight06:4112:41
Sunrise07:1113:11
Sunset16:4022:40
Evening civil twilight17:1023:10

Current date and time
Zulu (UTC)  12-Dec-2019 23:42:44
Local (UTC-6)  12-Dec-2019 17:42:44
 
METAR
KSUS 
11nm NW 
122254Z 15005KT 10SM CLR 08/M07 A3011 RMK AO2 SLP202 T00781067
KSTL 
11nm N 
122251Z 18006KT 10SM FEW150 SCT250 09/M07 A3014 RMK AO2 SLP211 T00941067
KCPS 
13nm E 
122253Z 16006KT 10SM CLR 07/M04 A3014 RMK AO2 SLP209 T00671044
KSET 
22nm N 
122254Z AUTO A3011 RMK AO2 SLPNO PWINO FZRANO $
TAF
KSUS 
11nm NW 
121720Z 1218/1318 18012G18KT P6SM BKN250 FM122200 16004KT P6SM BKN150
KSTL 
11nm N 
122106Z 1221/1324 18012G18KT P6SM SCT200 FM122300 17008KT P6SM BKN150
KCPS 
13nm E 
121720Z 1218/1318 18012G18KT P6SM BKN250 FM122200 16005KT P6SM BKN150
NOTAMs
Click for the latest NOTAMs
NOTAMs are issued by the DoD/FAA and will open in a separate window not controlled by AirNav.

 

 
 

Would you like to see your business listed on this page?

 If your business provides an interesting product or service to pilots, flight crews, aircraft, or users of the St Joseph Hospital Heliport, you should consider listing it here.  To start the listing process, click on the button below
 
Add a business
 

Other Pages about St Joseph Hospital Heliport

Update a link
 
Copyright © AirNav, LLC. All rights reserved. Privacy Policy  Contact